createdAt,value
2023-09-06T00:02:14.751Z,12.10
2023-09-06T00:05:01.588Z,12.73
2023-09-06T00:07:47.722Z,11.25
2023-09-06T00:10:36.177Z,17.50
2023-09-06T00:13:22.089Z,14.82
2023-09-06T00:16:08.544Z,12.73
2023-09-06T00:18:54.560Z,15.45
2023-09-06T00:21:42.208Z,16.38
2023-09-06T00:24:27.839Z,15.05
2023-09-06T00:27:15.615Z,11.82
2023-09-06T00:30:01.210Z,13.02
2023-09-06T00:32:47.393Z,18.52
2023-09-06T00:35:36.831Z,13.95
2023-09-06T00:38:24.076Z,11.25
2023-09-06T00:41:09.596Z,11.65
2023-09-06T00:43:55.117Z,10.77
2023-09-06T00:46:40.904Z,29.90
2023-09-06T00:49:26.605Z,21.35
2023-09-06T00:52:12.467Z,16.92
2023-09-06T00:55:02.349Z,20.55
2023-09-06T00:57:49.183Z,19.92
2023-09-06T01:00:36.993Z,23.40
2023-09-06T01:03:22.954Z,12.57
2023-09-06T01:06:16.240Z,15.55
2023-09-06T01:09:07.278Z,14.68
2023-09-06T01:11:52.937Z,11.38
2023-09-06T01:14:41.436Z,12.35
2023-09-06T01:17:29.662Z,12.35
2023-09-06T01:20:40.171Z,15.10
2023-09-06T01:23:37.938Z,15.80
2023-09-06T01:26:23.678Z,17.33
2023-09-06T01:29:10.328Z,17.13
2023-09-06T01:31:56.402Z,17.15
2023-09-06T01:34:42.262Z,18.48
2023-09-06T01:37:28.250Z,18.70
2023-09-06T01:40:17.741Z,14.90
2023-09-06T01:43:03.612Z,14.73
2023-09-06T01:45:52.939Z,31.45
2023-09-06T01:48:40.895Z,22.85
2023-09-06T01:51:27.010Z,20.30
2023-09-06T01:54:13.179Z,22.17
2023-09-06T01:56:59.003Z,22.70
2023-09-06T01:59:44.621Z,23.38
2023-09-06T02:02:30.260Z,23.67
2023-09-06T02:05:15.672Z,20.52
2023-09-06T02:08:01.443Z,22.92
2023-09-06T02:10:47.042Z,21.63
2023-09-06T02:13:32.601Z,17.15
2023-09-06T02:16:19.202Z,14.45
2023-09-06T02:19:06.428Z,26.48
2023-09-06T02:21:53.719Z,20.02
2023-09-06T02:24:40.632Z,17.45
2023-09-06T02:27:26.254Z,21.95
2023-09-06T02:30:12.107Z,15.13
2023-09-06T02:32:59.810Z,14.00
2023-09-06T02:35:45.869Z,13.88
2023-09-06T02:38:31.823Z,18.23
2023-09-06T02:41:17.587Z,11.90
2023-09-06T02:44:03.375Z,20.95
2023-09-06T02:46:53.921Z,23.70
2023-09-06T02:49:42.374Z,16.42
2023-09-06T02:52:31.767Z,18.70
2023-09-06T02:55:17.746Z,13.65
2023-09-06T02:58:03.170Z,17.30
2023-09-06T03:00:50.478Z,12.10
2023-09-06T03:03:36.399Z,13.05
2023-09-06T03:06:34.127Z,18.80
2023-09-06T03:09:29.975Z,21.42
2023-09-06T03:12:17.993Z,18.42
2023-09-06T03:15:03.758Z,22.33
2023-09-06T03:17:50.306Z,20.80
2023-09-06T03:20:44.304Z,23.70
2023-09-06T03:23:33.454Z,18.00
2023-09-06T03:26:19.032Z,17.38
2023-09-06T03:29:04.548Z,17.35
2023-09-06T03:31:50.223Z,15.07
2023-09-06T03:34:36.872Z,21.73
2023-09-06T03:37:25.208Z,20.33
2023-09-06T03:40:49.472Z,23.25
2023-09-06T03:43:35.378Z,23.50
2023-09-06T03:46:22.172Z,21.85
2023-09-06T03:49:09.469Z,24.95
2023-09-06T03:51:55.502Z,25.27
2023-09-06T03:54:41.950Z,27.48
2023-09-06T03:57:27.315Z,41.72
2023-09-06T04:00:39.672Z,21.45
2023-09-06T04:03:27.861Z,23.70
2023-09-06T04:06:14.131Z,28.08
2023-09-06T04:08:59.894Z,29.42
2023-09-06T04:11:50.384Z,42.20
2023-09-06T04:14:37.288Z,29.67
2023-09-06T04:17:23.069Z,27.67
2023-09-06T04:20:24.701Z,21.77
2023-09-06T04:23:14.359Z,33.55
2023-09-06T04:26:01.822Z,22.42
2023-09-06T04:28:47.264Z,21.58
2023-09-06T04:31:33.613Z,14.80
2023-09-06T04:34:19.357Z,20.15
2023-09-06T04:37:05.083Z,16.75
2023-09-06T04:39:54.663Z,22.48
2023-09-06T04:42:43.784Z,23.95
2023-09-06T04:45:29.074Z,25.50
2023-09-06T04:48:18.644Z,19.70
2023-09-06T04:51:06.001Z,17.08
2023-09-06T04:53:55.264Z,16.30
2023-09-06T04:56:42.142Z,21.27
2023-09-06T04:59:27.941Z,11.80
2023-09-06T05:02:13.662Z,16.95
2023-09-06T05:05:00.729Z,19.73
2023-09-06T05:07:46.548Z,15.60
2023-09-06T05:10:32.821Z,13.57
2023-09-06T05:13:19.554Z,24.05
2023-09-06T05:16:06.818Z,14.90
2023-09-06T05:18:53.038Z,13.07
2023-09-06T05:21:38.621Z,20.58
2023-09-06T05:24:24.340Z,36.08
2023-09-06T05:27:09.766Z,29.60
2023-09-06T05:29:57.408Z,29.00
2023-09-06T05:32:44.145Z,52.40
2023-09-06T05:35:29.682Z,49.97
2023-09-06T05:38:15.506Z,44.38
2023-09-06T05:41:00.924Z,28.35
2023-09-06T05:43:47.909Z,39.65
2023-09-06T05:46:34.319Z,41.90
2023-09-06T05:49:20.027Z,43.65
2023-09-06T05:52:05.741Z,36.55
2023-09-06T05:54:53.935Z,50.15
2023-09-06T05:57:41.414Z,34.75
2023-09-06T06:00:29.728Z,27.40
2023-09-06T06:03:16.043Z,21.35
2023-09-06T06:06:01.577Z,31.05
2023-09-06T06:08:47.257Z,12.60
2023-09-06T06:11:32.911Z,15.85
2023-09-06T06:14:18.740Z,12.23
2023-09-06T06:17:06.777Z,22.35
2023-09-06T06:19:52.463Z,25.52
2023-09-06T06:22:41.836Z,27.83
2023-09-06T06:25:27.294Z,27.88
2023-09-06T06:28:14.124Z,19.48
2023-09-06T06:30:59.821Z,26.08
2023-09-06T06:33:45.138Z,28.48
2023-09-06T06:36:33.212Z,22.60
2023-09-06T06:39:19.249Z,28.08
2023-09-06T06:42:04.920Z,20.27
2023-09-06T06:44:50.412Z,24.70
2023-09-06T06:47:35.827Z,24.70
2023-09-06T06:50:23.467Z,25.42
2023-09-06T06:53:09.667Z,20.20
2023-09-06T06:55:55.712Z,23.35
2023-09-06T06:58:41.851Z,17.85
2023-09-06T07:01:28.979Z,20.10
2023-09-06T07:04:14.398Z,16.20
2023-09-06T07:07:00.534Z,20.63
2023-09-06T07:09:46.004Z,18.70
2023-09-06T07:12:31.585Z,14.82
2023-09-06T07:15:17.499Z,17.65
2023-09-06T07:18:08.169Z,13.23
2023-09-06T07:20:54.168Z,29.05
2023-09-06T07:23:39.756Z,11.65
2023-09-06T07:26:25.265Z,23.85
2023-09-06T07:29:12.050Z,20.48
2023-09-06T07:31:58.132Z,19.70
2023-09-06T07:34:44.846Z,17.30
2023-09-06T07:37:33.393Z,12.23
2023-09-06T07:40:18.825Z,18.90
2023-09-06T07:43:04.881Z,9.65
2023-09-06T07:45:50.449Z,10.68
2023-09-06T07:48:37.755Z,10.20
2023-09-06T07:51:25.075Z,8.88
2023-09-06T07:54:11.738Z,11.27
2023-09-06T07:56:57.490Z,13.88
2023-09-06T07:59:43.152Z,9.07
2023-09-06T08:02:29.165Z,10.73
2023-09-06T08:05:15.950Z,5.85
2023-09-06T08:08:03.995Z,9.95
2023-09-06T08:10:49.933Z,14.88
2023-09-06T08:13:35.676Z,6.20
2023-09-06T08:16:21.618Z,9.25
2023-09-06T08:19:07.405Z,15.52
2023-09-06T08:21:53.334Z,7.93
2023-09-06T08:24:40.920Z,10.45
2023-09-06T08:27:28.163Z,13.27
2023-09-06T08:30:16.514Z,18.88
2023-09-06T08:33:03.583Z,11.15
2023-09-06T08:35:49.496Z,14.95
2023-09-06T08:38:35.440Z,10.82
2023-09-06T08:41:22.191Z,9.57
2023-09-06T08:44:12.410Z,10.60
2023-09-06T08:47:06.239Z,7.40
2023-09-06T08:49:54.659Z,12.13
2023-09-06T08:52:44.585Z,9.98
2023-09-06T08:55:31.546Z,11.57
2023-09-06T08:58:17.191Z,11.10
2023-09-06T09:01:07.736Z,10.82
2023-09-06T09:03:53.680Z,12.63
2023-09-06T09:06:43.836Z,7.95
2023-09-06T09:09:29.701Z,5.32
2023-09-06T09:12:15.998Z,9.82
2023-09-06T09:15:17.482Z,7.47
2023-09-06T09:18:14.318Z,8.98
2023-09-06T09:21:00.197Z,10.32
2023-09-06T09:23:48.554Z,14.45
2023-09-06T09:26:34.608Z,13.88
2023-09-06T09:29:21.024Z,17.50
2023-09-06T09:32:07.215Z,7.00
2023-09-06T09:34:53.835Z,5.93
2023-09-06T09:37:45.764Z,7.05
2023-09-06T09:43:23.832Z,6.43
2023-09-06T09:46:10.962Z,8.05
2023-09-06T09:49:01.044Z,8.38
2023-09-06T09:51:49.298Z,10.48
2023-09-06T09:54:35.818Z,7.97
2023-09-06T09:57:24.231Z,4.65
2023-09-06T10:00:13.072Z,6.18
2023-09-06T10:02:59.794Z,10.65
2023-09-06T10:05:46.644Z,9.27
2023-09-06T10:08:34.201Z,6.50
2023-09-06T10:11:23.148Z,6.38
2023-09-06T10:14:12.510Z,5.60
2023-09-06T10:16:58.842Z,5.88
2023-09-06T10:19:54.439Z,7.25
2023-09-06T10:22:47.803Z,7.03
2023-09-06T10:25:34.528Z,3.88
2023-09-06T10:28:26.354Z,7.75
2023-09-06T10:31:15.091Z,5.05
2023-09-06T10:34:01.289Z,7.80
2023-09-06T10:36:58.904Z,12.25
2023-09-06T10:39:56.546Z,5.13
2023-09-06T10:42:42.853Z,9.48
2023-09-06T10:45:28.869Z,5.78
2023-09-06T10:48:14.832Z,10.10
2023-09-06T10:51:17.307Z,7.28
2023-09-06T10:54:04.310Z,4.25
2023-09-06T10:57:13.859Z,10.13
2023-09-06T11:00:00.006Z,8.40
2023-09-06T11:03:06.526Z,5.97
2023-09-06T11:05:53.447Z,6.75
2023-09-06T11:08:40.185Z,5.78
2023-09-06T11:11:27.549Z,7.65
2023-09-06T11:14:13.209Z,3.65
2023-09-06T11:16:58.628Z,5.07
2023-09-06T11:19:47.053Z,4.57
2023-09-06T11:22:34.006Z,5.03
2023-09-06T11:25:20.767Z,3.03
2023-09-06T11:28:20.403Z,3.55
2023-09-06T11:31:06.794Z,5.60
2023-09-06T11:34:02.347Z,5.78
2023-09-06T11:36:49.165Z,4.65
2023-09-06T11:39:35.809Z,7.00
2023-09-06T11:42:22.336Z,9.20
2023-09-06T11:45:10.400Z,6.13
2023-09-06T11:48:00.565Z,5.55
2023-09-06T11:50:48.921Z,8.10
2023-09-06T11:53:42.024Z,4.53
2023-09-06T11:56:32.576Z,4.75
2023-09-06T11:59:23.716Z,5.22
2023-09-06T12:02:19.060Z,4.63
2023-09-06T12:05:12.674Z,6.18
2023-09-06T12:08:02.347Z,5.25
2023-09-06T12:10:51.870Z,3.90
2023-09-06T12:13:39.649Z,5.82
2023-09-06T12:16:26.341Z,6.85
2023-09-06T12:19:14.158Z,9.40
2023-09-06T12:21:59.563Z,7.18
2023-09-06T12:24:49.049Z,5.40
2023-09-06T12:27:35.272Z,4.57
2023-09-06T12:30:21.429Z,5.88
2023-09-06T12:33:07.267Z,7.70
2023-09-06T12:36:00.628Z,2.80
2023-09-06T12:38:47.637Z,4.28
2023-09-06T12:41:33.720Z,6.70
2023-09-06T12:44:20.602Z,3.78
2023-09-06T12:47:08.038Z,7.88
2023-09-06T12:49:55.073Z,5.72
2023-09-06T12:52:40.566Z,4.40
2023-09-06T12:55:27.769Z,3.15
2023-09-06T12:58:14.489Z,3.47
2023-09-06T13:01:02.428Z,5.15
2023-09-06T13:03:49.199Z,6.18
2023-09-06T13:06:35.085Z,8.13
2023-09-06T13:09:20.484Z,7.47
2023-09-06T13:12:06.207Z,3.50
2023-09-06T13:14:52.197Z,11.13
2023-09-06T13:17:38.248Z,10.45
2023-09-06T13:20:24.259Z,15.38
2023-09-06T13:23:11.778Z,7.32
2023-09-06T13:26:00.633Z,7.45
2023-09-06T13:28:46.524Z,12.13
2023-09-06T13:31:32.269Z,5.47
2023-09-06T13:34:18.374Z,5.38
2023-09-06T13:37:04.977Z,2.33
2023-09-06T13:39:51.056Z,2.83
2023-09-06T13:42:36.708Z,5.18
2023-09-06T13:45:22.251Z,2.75
2023-09-06T13:48:07.809Z,8.93
2023-09-06T13:50:53.734Z,15.82
2023-09-06T13:53:39.387Z,6.00
2023-09-06T13:56:24.756Z,5.95
2023-09-06T13:59:10.838Z,3.67
2023-09-06T14:01:56.646Z,2.95
2023-09-06T14:04:45.340Z,5.22
2023-09-06T14:07:31.428Z,3.80
2023-09-06T14:10:17.401Z,2.55
2023-09-06T14:12:47.015Z,2.75
2023-09-06T14:15:35.805Z,3.58
2023-09-06T14:18:23.275Z,3.08
2023-09-06T14:21:08.636Z,7.25
2023-09-06T14:23:54.861Z,2.05
2023-09-06T14:26:40.339Z,8.55
2023-09-06T14:29:26.474Z,7.95
2023-09-06T14:32:13.231Z,2.97
2023-09-06T14:35:02.798Z,3.55
2023-09-06T14:37:48.679Z,2.70
2023-09-06T14:40:42.125Z,7.25
2023-09-06T14:43:28.676Z,4.03
2023-09-06T14:46:14.065Z,6.20
2023-09-06T14:48:59.674Z,2.50
2023-09-06T14:51:47.987Z,7.68
2023-09-06T14:54:33.734Z,8.97
2023-09-06T14:57:19.700Z,2.97
2023-09-06T15:00:06.475Z,7.10
2023-09-06T15:02:54.927Z,4.28
2023-09-06T15:05:44.002Z,9.68
2023-09-06T15:08:30.476Z,2.20
2023-09-06T15:11:17.060Z,10.85
2023-09-06T15:14:03.120Z,6.25
2023-09-06T15:16:49.962Z,4.93
2023-09-06T15:19:35.473Z,4.60
2023-09-06T15:22:36.714Z,3.35
2023-09-06T15:25:27.400Z,3.53
2023-09-06T15:28:13.842Z,8.38
2023-09-06T15:30:59.381Z,7.75
2023-09-06T15:33:46.550Z,5.95
2023-09-06T15:36:32.810Z,10.27
2023-09-06T15:39:19.305Z,3.75
2023-09-06T15:42:05.208Z,12.43
2023-09-06T15:44:50.868Z,8.15
2023-09-06T15:47:36.365Z,9.70
2023-09-06T15:50:24.024Z,11.07
2023-09-06T15:53:09.873Z,6.72
2023-09-06T15:55:55.413Z,12.93
2023-09-06T15:58:40.668Z,4.00
2023-09-06T16:01:31.068Z,4.97
2023-09-06T16:04:17.930Z,10.35
2023-09-06T16:07:08.245Z,30.85
2023-09-06T16:09:55.799Z,18.23
2023-09-06T16:12:41.811Z,30.98
2023-09-06T16:15:27.713Z,12.57
2023-09-06T16:18:27.000Z,31.48
2023-09-06T16:21:12.582Z,10.48
2023-09-06T16:24:01.875Z,25.08
2023-09-06T16:26:47.741Z,13.40
2023-09-06T16:29:33.423Z,26.60
2023-09-06T16:32:19.287Z,11.75
2023-09-06T16:35:11.254Z,18.10
2023-09-06T16:38:01.548Z,11.52
2023-09-06T16:40:46.971Z,21.38
2023-09-06T16:43:33.667Z,8.10
2023-09-06T16:46:20.820Z,13.65
2023-09-06T16:49:07.012Z,14.32
2023-09-06T16:51:53.005Z,6.78
2023-09-06T16:54:38.687Z,8.07
2023-09-06T16:57:26.154Z,12.95
2023-09-06T17:00:14.452Z,5.07
2023-09-06T17:03:01.688Z,5.13
2023-09-06T17:05:47.878Z,6.40
2023-09-06T17:08:33.720Z,7.63
2023-09-06T17:11:19.252Z,9.93
2023-09-06T17:14:04.771Z,8.57
2023-09-06T17:16:50.251Z,10.32
2023-09-06T17:19:35.703Z,20.23
2023-09-06T17:22:21.151Z,5.47
2023-09-06T17:25:10.306Z,7.78
2023-09-06T17:27:56.566Z,6.88
2023-09-06T17:30:42.681Z,9.02
2023-09-06T17:33:28.574Z,9.50
2023-09-06T17:36:13.997Z,8.10
2023-09-06T17:38:59.673Z,10.65
2023-09-06T17:41:46.053Z,25.38
2023-09-06T17:44:38.385Z,15.73
2023-09-06T17:50:18.677Z,16.15
2023-09-06T17:53:11.147Z,13.07
2023-09-06T17:56:13.941Z,15.77
2023-09-06T17:59:00.100Z,17.67
2023-09-06T18:01:47.457Z,7.30
2023-09-06T18:04:34.211Z,15.00
2023-09-06T18:07:21.353Z,13.32
2023-09-06T18:10:08.082Z,11.45
2023-09-06T18:12:56.739Z,8.35
2023-09-06T18:15:42.519Z,10.95
2023-09-06T18:18:28.450Z,14.30
2023-09-06T18:21:15.494Z,11.38
2023-09-06T18:24:05.372Z,9.38
2023-09-06T18:27:02.098Z,19.10
2023-09-06T18:29:53.831Z,9.77
2023-09-06T18:32:40.480Z,12.20
2023-09-06T18:35:28.301Z,11.65
2023-09-06T18:38:15.745Z,16.33
2023-09-06T18:41:01.425Z,15.77
2023-09-06T18:43:48.248Z,16.85
2023-09-06T18:46:37.193Z,12.90
2023-09-06T18:49:23.506Z,15.35
2023-09-06T18:52:09.225Z,18.75
2023-09-06T18:54:54.908Z,23.95
2023-09-06T18:57:51.302Z,17.30
2023-09-06T19:00:42.708Z,18.92
2023-09-06T19:03:29.069Z,15.05
2023-09-06T19:06:15.144Z,18.23
2023-09-06T19:09:01.205Z,16.20
2023-09-06T19:11:46.854Z,12.57
2023-09-06T19:14:32.895Z,22.48
2023-09-06T19:17:19.044Z,20.08
2023-09-06T19:20:07.212Z,11.27
2023-09-06T19:22:55.948Z,11.85
2023-09-06T19:25:44.087Z,13.65
2023-09-06T19:28:30.075Z,16.20
2023-09-06T19:31:16.244Z,17.40
2023-09-06T19:34:02.617Z,14.55
2023-09-06T19:36:47.899Z,16.45
2023-09-06T19:39:34.915Z,16.63
2023-09-06T19:42:21.794Z,10.95
2023-09-06T19:45:11.429Z,14.68
2023-09-06T19:47:57.056Z,12.13
2023-09-06T19:50:43.407Z,18.35
2023-09-06T19:53:29.045Z,7.80
2023-09-06T19:56:16.340Z,21.40
2023-09-06T19:59:07.434Z,7.50
2023-09-06T20:01:53.435Z,9.70
2023-09-06T20:04:39.461Z,10.65
2023-09-06T20:07:25.539Z,8.45
2023-09-06T20:10:12.591Z,7.07
2023-09-06T20:13:33.033Z,8.48
2023-09-06T20:16:19.170Z,10.68
2023-09-06T20:19:07.899Z,4.80
2023-09-06T20:21:53.285Z,7.28
2023-09-06T20:24:38.813Z,7.30
2023-09-06T20:27:24.859Z,13.73
2023-09-06T20:30:12.919Z,9.93
2023-09-06T20:32:58.455Z,11.73
2023-09-06T20:35:44.828Z,10.13
2023-09-06T20:38:32.002Z,7.90
2023-09-06T20:41:17.957Z,10.63
2023-09-06T20:44:03.839Z,9.73
2023-09-06T20:46:49.880Z,9.13
2023-09-06T20:49:35.352Z,10.70
2023-09-06T20:52:21.321Z,5.57
2023-09-06T20:55:07.423Z,6.20
2023-09-06T20:57:53.417Z,4.32
2023-09-06T21:00:40.023Z,11.13
2023-09-06T21:03:26.311Z,10.93
2023-09-06T21:06:12.601Z,4.40
2023-09-06T21:09:00.076Z,5.78
2023-09-06T21:11:45.651Z,4.43
2023-09-06T21:14:31.499Z,8.23
2023-09-06T21:17:17.227Z,6.53
2023-09-06T21:20:04.399Z,9.55
2023-09-06T21:22:50.543Z,9.40
2023-09-06T21:25:40.485Z,8.48
2023-09-06T21:28:26.148Z,6.63
2023-09-06T21:31:11.742Z,8.95
2023-09-06T21:33:57.898Z,6.13
2023-09-06T21:36:43.702Z,5.72
2023-09-06T21:39:29.102Z,5.28
2023-09-06T21:42:14.794Z,6.88
2023-09-06T21:45:00.394Z,5.75
2023-09-06T21:47:46.056Z,6.05
2023-09-06T21:50:37.594Z,7.88
2023-09-06T21:53:23.452Z,5.35
2023-09-06T21:56:15.399Z,5.45
2023-09-06T21:59:00.952Z,7.47
2023-09-06T22:01:46.725Z,6.47
2023-09-06T22:04:32.456Z,6.28
2023-09-06T22:07:18.536Z,5.22
2023-09-06T22:10:06.478Z,6.35
2023-09-06T22:12:52.437Z,6.85
2023-09-06T22:15:38.413Z,5.47
2023-09-06T22:18:24.147Z,6.72
2023-09-06T22:21:09.596Z,6.18
2023-09-06T22:23:55.104Z,6.68
2023-09-06T22:26:41.395Z,5.78
2023-09-06T22:29:27.007Z,8.88
2023-09-06T22:32:14.567Z,4.85
2023-09-06T22:34:59.918Z,5.68
2023-09-06T22:37:45.189Z,5.40
2023-09-06T22:40:30.823Z,4.95
2023-09-06T22:43:18.906Z,6.22
2023-09-06T22:46:04.656Z,5.85
2023-09-06T22:48:54.340Z,7.32
2023-09-06T22:51:43.434Z,9.75
2023-09-06T22:54:29.339Z,6.55
2023-09-06T22:57:14.974Z,5.88
2023-09-06T23:00:01.372Z,6.85
2023-09-06T23:02:47.527Z,7.07
2023-09-06T23:05:33.163Z,5.93
2023-09-06T23:08:19.661Z,5.13
2023-09-06T23:11:05.567Z,7.78
2023-09-06T23:13:51.475Z,7.07
2023-09-06T23:16:37.171Z,9.80
2023-09-06T23:19:28.178Z,4.93
2023-09-06T23:22:26.622Z,8.18
2023-09-06T23:25:17.753Z,10.80
2023-09-06T23:28:12.624Z,8.55
2023-09-06T23:31:04.624Z,8.18
2023-09-06T23:33:55.389Z,5.35
2023-09-06T23:36:41.082Z,8.02
2023-09-06T23:39:29.091Z,7.10
2023-09-06T23:42:18.498Z,12.65
2023-09-06T23:45:05.756Z,11.95
2023-09-06T23:47:55.992Z,6.72
2023-09-06T23:50:42.186Z,6.88
2023-09-06T23:53:27.909Z,6.28
2023-09-06T23:56:13.434Z,5.78
2023-09-06T23:58:58.758Z,5.63
